sensor_id;sensor_type;location;lat;lon;timestamp;pressure;altitude;pressure_sealevel;temperature;humidity
9277;BME280;4676;42.678;23.244;2023-03-12T00:01:38;93262.94;;;2.33;nan
9277;BME280;4676;42.678;23.244;2023-03-12T00:04:05;93266.97;;;2.40;nan
9277;BME280;4676;42.678;23.244;2023-03-12T00:06:31;93269.69;;;2.31;nan
9277;BME280;4676;42.678;23.244;2023-03-12T00:08:58;93275.56;;;2.28;nan
9277;BME280;4676;42.678;23.244;2023-03-12T00:11:26;93277.09;;;2.35;nan
9277;BME280;4676;42.678;23.244;2023-03-12T00:13:56;93286.31;;;2.32;nan
9277;BME280;4676;42.678;23.244;2023-03-12T00:16:25;93286.19;;;2.38;nan
9277;BME280;4676;42.678;23.244;2023-03-12T00:18:53;93285.38;;;2.36;nan
9277;BME280;4676;42.678;23.244;2023-03-12T00:21:21;93273.31;;;2.16;nan
9277;BME280;4676;42.678;23.244;2023-03-12T00:23:48;93278.16;;;2.24;nan
9277;BME280;4676;42.678;23.244;2023-03-12T00:26:15;93298.22;;;2.21;nan
9277;BME280;4676;42.678;23.244;2023-03-12T00:28:42;93269.25;;;2.12;nan
9277;BME280;4676;42.678;23.244;2023-03-12T00:31:15;93284.16;;;2.15;nan
9277;BME280;4676;42.678;23.244;2023-03-12T00:33:42;93284.16;;;2.15;nan
9277;BME280;4676;42.678;23.244;2023-03-12T00:36:09;93285.97;;;2.10;nan
9277;BME280;4676;42.678;23.244;2023-03-12T00:38:35;93280.84;;;2.15;nan
9277;BME280;4676;42.678;23.244;2023-03-12T00:41:02;93270.00;;;2.16;nan
9277;BME280;4676;42.678;23.244;2023-03-12T00:43:29;93265.13;;;2.10;nan
9277;BME280;4676;42.678;23.244;2023-03-12T00:45:56;93271.78;;;2.11;nan
9277;BME280;4676;42.678;23.244;2023-03-12T00:48:24;93281.81;;;2.09;nan
9277;BME280;4676;42.678;23.244;2023-03-12T00:50:51;93283.59;;;2.04;nan
9277;BME280;4676;42.678;23.244;2023-03-12T00:53:17;93276.94;;;2.03;nan
9277;BME280;4676;42.678;23.244;2023-03-12T00:55:44;93282.03;;;1.98;nan
9277;BME280;4676;42.678;23.244;2023-03-12T00:58:11;93283.69;;;1.99;nan
9277;BME280;4676;42.678;23.244;2023-03-12T01:00:37;93292.84;;;2.00;nan
9277;BME280;4676;42.678;23.244;2023-03-12T01:03:04;93290.41;;;1.96;nan
9277;BME280;4676;42.678;23.244;2023-03-12T01:05:32;93282.94;;;1.94;nan
9277;BME280;4676;42.678;23.244;2023-03-12T01:08:02;93284.69;;;1.91;nan
9277;BME280;4676;42.678;23.244;2023-03-12T01:10:29;93282.22;;;1.89;nan
9277;BME280;4676;42.678;23.244;2023-03-12T01:12:56;93289.78;;;1.86;nan
9277;BME280;4676;42.678;23.244;2023-03-12T01:15:23;93304.84;;;1.82;nan
9277;BME280;4676;42.678;23.244;2023-03-12T01:17:49;93298.28;;;1.78;nan
9277;BME280;4676;42.678;23.244;2023-03-12T01:20:16;93295.75;;;1.79;nan
9277;BME280;4676;42.678;23.244;2023-03-12T01:22:44;93296.53;;;1.83;nan
9277;BME280;4676;42.678;23.244;2023-03-12T01:25:11;93290.78;;;1.78;nan
9277;BME280;4676;42.678;23.244;2023-03-12T01:27:38;93297.50;;;1.76;nan
9277;BME280;4676;42.678;23.244;2023-03-12T01:30:05;93305.75;;;1.78;nan
9277;BME280;4676;42.678;23.244;2023-03-12T01:32:32;93298.34;;;1.73;nan
9277;BME280;4676;42.678;23.244;2023-03-12T01:34:59;93302.53;;;1.73;nan
9277;BME280;4676;42.678;23.244;2023-03-12T01:37:26;93288.31;;;1.76;nan
9277;BME280;4676;42.678;23.244;2023-03-12T01:39:54;93297.50;;;1.74;nan
9277;BME280;4676;42.678;23.244;2023-03-12T01:42:21;93297.53;;;1.73;nan
9277;BME280;4676;42.678;23.244;2023-03-12T01:44:52;93299.88;;;1.82;nan
9277;BME280;4676;42.678;23.244;2023-03-12T01:47:19;93308.19;;;1.81;nan
9277;BME280;4676;42.678;23.244;2023-03-12T01:49:47;93291.47;;;1.84;nan
9277;BME280;4676;42.678;23.244;2023-03-12T01:52:17;93294.72;;;1.88;nan
9277;BME280;4676;42.678;23.244;2023-03-12T01:54:49;93298.81;;;1.92;nan
9277;BME280;4676;42.678;23.244;2023-03-12T01:57:23;93268.31;;;1.76;nan
9277;BME280;4676;42.678;23.244;2023-03-12T01:59:54;93289.81;;;1.85;nan
9277;BME280;4676;42.678;23.244;2023-03-12T02:02:23;93292.25;;;1.88;nan
9277;BME280;4676;42.678;23.244;2023-03-12T02:05:04;93288.06;;;1.88;nan
9277;BME280;4676;42.678;23.244;2023-03-12T02:07:33;93274.91;;;1.80;nan
9277;BME280;4676;42.678;23.244;2023-03-12T02:10:01;93284.78;;;1.86;nan
9277;BME280;4676;42.678;23.244;2023-03-12T02:12:30;93292.28;;;1.86;nan
9277;BME280;4676;42.678;23.244;2023-03-12T02:14:57;93292.38;;;1.82;nan
9277;BME280;4676;42.678;23.244;2023-03-12T02:17:24;93286.41;;;1.87;nan
9277;BME280;4676;42.678;23.244;2023-03-12T02:19:56;93289.03;;;1.83;nan
9277;BME280;4676;42.678;23.244;2023-03-12T02:22:27;93286.63;;;1.77;nan
9277;BME280;4676;42.678;23.244;2023-03-12T02:24:57;93288.19;;;1.82;nan
9277;BME280;4676;42.678;23.244;2023-03-12T02:27:31;93290.72;;;1.81;nan
9277;BME280;4676;42.678;23.244;2023-03-12T02:29:59;93291.69;;;1.74;nan
9277;BME280;4676;42.678;23.244;2023-03-12T02:32:27;93290.00;;;1.76;nan
9277;BME280;4676;42.678;23.244;2023-03-12T02:34:55;93285.81;;;1.76;nan
9277;BME280;4676;42.678;23.244;2023-03-12T02:37:22;93292.44;;;1.79;nan
9277;BME280;4676;42.678;23.244;2023-03-12T02:39:52;93305.75;;;1.79;nan
9277;BME280;4676;42.678;23.244;2023-03-12T02:42:23;93310.00;;;1.74;nan
9277;BME280;4676;42.678;23.244;2023-03-12T02:44:51;93318.31;;;1.75;nan
9277;BME280;4676;42.678;23.244;2023-03-12T02:47:17;93314.94;;;1.77;nan
9277;BME280;4676;42.678;23.244;2023-03-12T02:49:44;93317.47;;;1.76;nan
9277;BME280;4676;42.678;23.244;2023-03-12T02:52:11;93323.25;;;1.78;nan
9277;BME280;4676;42.678;23.244;2023-03-12T02:54:37;93325.75;;;1.76;nan
9277;BME280;4676;42.678;23.244;2023-03-12T02:57:04;93325.94;;;1.67;nan
9277;BME280;4676;42.678;23.244;2023-03-12T02:59:31;93334.97;;;1.76;nan
9277;BME280;4676;42.678;23.244;2023-03-12T03:01:59;93332.56;;;1.70;nan
9277;BME280;4676;42.678;23.244;2023-03-12T03:04:27;93335.97;;;1.66;nan
9277;BME280;4676;42.678;23.244;2023-03-12T03:06:54;93335.28;;;1.58;nan
9277;BME280;4676;42.678;23.244;2023-03-12T03:09:21;93331.72;;;1.71;nan
9277;BME280;4676;42.678;23.244;2023-03-12T03:11:49;93333.47;;;1.66;nan
9277;BME280;4676;42.678;23.244;2023-03-12T03:14:16;93339.25;;;1.68;nan
9277;BME280;4676;42.678;23.244;2023-03-12T03:16:43;93343.50;;;1.64;nan
9277;BME280;4676;42.678;23.244;2023-03-12T03:19:11;93343.44;;;1.67;nan
9277;BME280;4676;42.678;23.244;2023-03-12T03:21:38;93344.28;;;1.66;nan
9277;BME280;4676;42.678;23.244;2023-03-12T03:24:05;93343.50;;;1.64;nan
9277;BME280;4676;42.678;23.244;2023-03-12T03:26:32;93352.66;;;1.62;nan
9277;BME280;4676;42.678;23.244;2023-03-12T03:28:58;93347.78;;;1.56;nan
9277;BME280;4676;42.678;23.244;2023-03-12T03:31:25;93351.91;;;1.59;nan
9277;BME280;4676;42.678;23.244;2023-03-12T03:33:52;93355.31;;;1.55;nan
9277;BME280;4676;42.678;23.244;2023-03-12T03:36:20;93354.41;;;1.59;nan
9277;BME280;4676;42.678;23.244;2023-03-12T03:38:47;93338.88;;;1.43;nan
9277;BME280;4676;42.678;23.244;2023-03-12T03:41:15;93361.34;;;1.43;nan
9277;BME280;4676;42.678;23.244;2023-03-12T03:43:42;93365.41;;;1.48;nan
9277;BME280;4676;42.678;23.244;2023-03-12T03:46:09;93367.06;;;1.48;nan
9277;BME280;4676;42.678;23.244;2023-03-12T03:48:36;93370.34;;;1.51;nan
9277;BME280;4676;42.678;23.244;2023-03-12T03:51:05;93343.25;;;1.30;nan
9277;BME280;4676;42.678;23.244;2023-03-12T03:53:33;93372.13;;;1.45;nan
9277;BME280;4676;42.678;23.244;2023-03-12T03:56:04;93374.66;;;1.43;nan
9277;BME280;4676;42.678;23.244;2023-03-12T03:58:32;93375.59;;;1.36;nan
9277;BME280;4676;42.678;23.244;2023-03-12T04:00:58;93377.41;;;1.28;nan
9277;BME280;4676;42.678;23.244;2023-03-12T04:03:25;93379.19;;;1.22;nan
9277;BME280;4676;42.678;23.244;2023-03-12T04:05:53;93385.78;;;1.24;nan
9277;BME280;4676;42.678;23.244;2023-03-12T04:08:20;93395.00;;;1.21;nan
9277;BME280;4676;42.678;23.244;2023-03-12T04:10:48;93398.31;;;1.21;nan
9277;BME280;4676;42.678;23.244;2023-03-12T04:13:15;93400.03;;;1.18;nan
9277;BME280;4676;42.678;23.244;2023-03-12T04:15:45;93405.91;;;1.14;nan
9277;BME280;4676;42.678;23.244;2023-03-12T04:18:12;93408.44;;;1.12;nan
9277;BME280;4676;42.678;23.244;2023-03-12T04:20:38;93417.59;;;1.12;nan
9277;BME280;4676;42.678;23.244;2023-03-12T04:23:05;93410.81;;;1.20;nan
9277;BME280;4676;42.678;23.244;2023-03-12T04:25:32;93408.53;;;1.06;nan
9277;BME280;4676;42.678;23.244;2023-03-12T04:28:00;93415.19;;;1.06;nan
9277;BME280;4676;42.678;23.244;2023-03-12T04:30:27;93421.88;;;1.04;nan
9277;BME280;4676;42.678;23.244;2023-03-12T04:32:54;93421.13;;;0.98;nan
9277;BME280;4676;42.678;23.244;2023-03-12T04:35:21;93407.13;;;0.90;nan
9277;BME280;4676;42.678;23.244;2023-03-12T04:37:49;93428.63;;;0.95;nan
9277;BME280;4676;42.678;23.244;2023-03-12T04:40:16;93432.78;;;0.98;nan
9277;BME280;4676;42.678;23.244;2023-03-12T04:42:44;93430.34;;;0.95;nan
9277;BME280;4676;42.678;23.244;2023-03-12T04:45:12;93441.97;;;0.94;nan
9277;BME280;4676;42.678;23.244;2023-03-12T04:47:39;93439.53;;;0.91;nan
9277;BME280;4676;42.678;23.244;2023-03-12T04:50:07;93447.03;;;0.90;nan
9277;BME280;4676;42.678;23.244;2023-03-12T04:52:34;93441.97;;;0.94;nan
9277;BME280;4676;42.678;23.244;2023-03-12T04:55:01;93451.06;;;0.98;nan
9277;BME280;4676;42.678;23.244;2023-03-12T04:57:27;93446.97;;;0.94;nan
9277;BME280;4676;42.678;23.244;2023-03-12T04:59:54;93442.84;;;0.90;nan
9277;BME280;4676;42.678;23.244;2023-03-12T05:02:22;93457.72;;;0.96;nan
9277;BME280;4676;42.678;23.244;2023-03-12T05:04:49;93465.22;;;0.98;nan
9277;BME280;4676;42.678;23.244;2023-03-12T05:07:16;93462.72;;;0.98;nan
9277;BME280;4676;42.678;23.244;2023-03-12T05:09:44;93466.00;;;1.00;nan
9277;BME280;4676;42.678;23.244;2023-03-12T05:12:10;93465.09;;;1.04;nan
9277;BME280;4676;42.678;23.244;2023-03-12T05:14:37;93470.94;;;1.05;nan
9277;BME280;4676;42.678;23.244;2023-03-12T05:17:04;93471.81;;;1.02;nan
9277;BME280;4676;42.678;23.244;2023-03-12T05:19:33;93477.53;;;1.06;nan
9277;BME280;4676;42.678;23.244;2023-03-12T05:21:59;93469.13;;;1.13;nan
9277;BME280;4676;42.678;23.244;2023-03-12T05:24:26;93473.28;;;1.15;nan
9277;BME280;4676;42.678;23.244;2023-03-12T05:26:53;93477.34;;;1.21;nan
9277;BME280;4676;42.678;23.244;2023-03-12T05:29:20;93476.44;;;1.25;nan
9277;BME280;4676;42.678;23.244;2023-03-12T05:31:46;93475.47;;;1.35;nan
9277;BME280;4676;42.678;23.244;2023-03-12T05:34:14;93480.44;;;1.35;nan
9277;BME280;4676;42.678;23.244;2023-03-12T05:36:43;93474.56;;;1.40;nan
9277;BME280;4676;42.678;23.244;2023-03-12T05:39:09;93483.44;;;1.58;nan
9277;BME280;4676;42.678;23.244;2023-03-12T05:41:36;93489.03;;;1.71;nan
9277;BME280;4676;42.678;23.244;2023-03-12T05:44:03;93500.59;;;1.76;nan
9277;BME280;4676;42.678;23.244;2023-03-12T05:46:30;93499.63;;;1.83;nan
9277;BME280;4676;42.678;23.244;2023-03-12T05:48:56;93502.06;;;1.88;nan
9277;BME280;4676;42.678;23.244;2023-03-12T05:51:23;93507.00;;;1.92;nan
9277;BME280;4676;42.678;23.244;2023-03-12T05:53:51;93503.59;;;1.96;nan
9277;BME280;4676;42.678;23.244;2023-03-12T05:56:18;93509.28;;;2.05;nan
9277;BME280;4676;42.678;23.244;2023-03-12T05:58:46;93510.75;;;2.15;nan
9277;BME280;4676;42.678;23.244;2023-03-12T06:01:15;93517.34;;;2.19;nan
9277;BME280;4676;42.678;23.244;2023-03-12T06:03:42;93514.22;;;2.08;nan
9277;BME280;4676;42.678;23.244;2023-03-12T06:06:09;93515.97;;;2.03;nan
9277;BME280;4676;42.678;23.244;2023-03-12T06:08:36;93511.69;;;2.09;nan
9277;BME280;4676;42.678;23.244;2023-03-12T06:11:05;93523.25;;;2.15;nan
9277;BME280;4676;42.678;23.244;2023-03-12T06:13:32;93525.47;;;2.31;nan
9277;BME280;4676;42.678;23.244;2023-03-12T06:16:02;93528.75;;;2.35;nan
9277;BME280;4676;42.678;23.244;2023-03-12T06:18:31;93534.53;;;2.37;nan
9277;BME280;4676;42.678;23.244;2023-03-12T06:21:07;93529.41;;;2.43;nan
9277;BME280;4676;42.678;23.244;2023-03-12T06:23:34;93530.94;;;2.51;nan
9277;BME280;4676;42.678;23.244;2023-03-12T06:26:01;93541.75;;;2.52;nan
9277;BME280;4676;42.678;23.244;2023-03-12T06:28:29;93540.72;;;2.62;nan
9277;BME280;4676;42.678;23.244;2023-03-12T06:30:56;93540.78;;;2.59;nan
9277;BME280;4676;42.678;23.244;2023-03-12T06:33:23;93547.41;;;2.62;nan
9277;BME280;4676;42.678;23.244;2023-03-12T06:35:52;93568.56;;;2.45;nan
9277;BME280;4676;42.678;23.244;2023-03-12T06:38:19;93566.44;;;2.69;nan
9277;BME280;4676;42.678;23.244;2023-03-12T06:40:52;93573.78;;;2.78;nan
9277;BME280;4676;42.678;23.244;2023-03-12T06:43:19;93577.66;;;2.92;nan
9277;BME280;4676;42.678;23.244;2023-03-12T06:45:47;93582.44;;;3.05;nan
9277;BME280;4676;42.678;23.244;2023-03-12T06:48:14;93586.09;;;2.88;nan
9277;BME280;4676;42.678;23.244;2023-03-12T06:50:41;93587.88;;;2.82;nan
9277;BME280;4676;42.678;23.244;2023-03-12T06:53:08;93591.38;;;2.73;nan
9277;BME280;4676;42.678;23.244;2023-03-12T06:55:34;93594.66;;;2.77;nan
9277;BME280;4676;42.678;23.244;2023-03-12T06:58:01;93587.81;;;2.40;nan
9277;BME280;4676;42.678;23.244;2023-03-12T07:00:28;93604.09;;;2.61;nan
9277;BME280;4676;42.678;23.244;2023-03-12T07:02:56;93603.91;;;2.72;nan
9277;BME280;4676;42.678;23.244;2023-03-12T07:05:23;93611.84;;;2.47;nan
9277;BME280;4676;42.678;23.244;2023-03-12T07:07:50;93616.13;;;2.39;nan
9277;BME280;4676;42.678;23.244;2023-03-12T07:10:17;93619.22;;;2.55;nan
9277;BME280;4676;42.678;23.244;2023-03-12T07:12:44;93618.31;;;2.59;nan
9277;BME280;4676;42.678;23.244;2023-03-12T07:15:11;93625.16;;;2.49;nan
9277;BME280;4676;42.678;23.244;2023-03-12T07:17:38;93624.34;;;2.47;nan
9277;BME280;4676;42.678;23.244;2023-03-12T07:20:08;93630.78;;;2.62;nan
9277;BME280;4676;42.678;23.244;2023-03-12T07:22:34;93643.47;;;2.50;nan
9277;BME280;4676;42.678;23.244;2023-03-12T07:25:01;93637.50;;;2.57;nan
9277;BME280;4676;42.678;23.244;2023-03-12T07:27:29;93634.03;;;2.66;nan
9277;BME280;4676;42.678;23.244;2023-03-12T07:29:55;93635.81;;;2.59;nan
9277;BME280;4676;42.678;23.244;2023-03-12T07:32:22;93644.03;;;2.67;nan
9277;BME280;4676;42.678;23.244;2023-03-12T07:34:49;93650.34;;;2.88;nan
9277;BME280;4676;42.678;23.244;2023-03-12T07:37:17;93647.84;;;2.86;nan
9277;BME280;4676;42.678;23.244;2023-03-12T07:39:43;93661.19;;;2.87;nan
9277;BME280;4676;42.678;23.244;2023-03-12T07:42:15;93665.34;;;2.86;nan
9277;BME280;4676;42.678;23.244;2023-03-12T07:44:42;93653.53;;;2.94;nan
9277;BME280;4676;42.678;23.244;2023-03-12T07:47:08;93655.88;;;3.03;nan
9277;BME280;4676;42.678;23.244;2023-03-12T07:49:35;93662.34;;;3.14;nan
9277;BME280;4676;42.678;23.244;2023-03-12T07:52:02;93672.13;;;3.26;nan
9277;BME280;4676;42.678;23.244;2023-03-12T07:54:30;93680.50;;;3.25;nan
9277;BME280;4676;42.678;23.244;2023-03-12T07:56:57;93671.59;;;3.10;nan
9277;BME280;4676;42.678;23.244;2023-03-12T07:59:24;93672.47;;;3.08;nan
9277;BME280;4676;42.678;23.244;2023-03-12T08:01:52;93678.31;;;3.07;nan
9277;BME280;4676;42.678;23.244;2023-03-12T08:04:18;93669.25;;;3.01;nan
9277;BME280;4676;42.678;23.244;2023-03-12T08:06:45;93670.88;;;3.03;nan
9277;BME280;4676;42.678;23.244;2023-03-12T08:09:12;93664.75;;;3.20;nan
9277;BME280;4676;42.678;23.244;2023-03-12T08:11:40;93666.09;;;3.34;nan
9277;BME280;4676;42.678;23.244;2023-03-12T08:14:07;93666.09;;;3.34;nan
9277;BME280;4676;42.678;23.244;2023-03-12T08:16:34;93688.06;;;3.22;nan
9277;BME280;4676;42.678;23.244;2023-03-12T08:19:00;93677.22;;;3.23;nan
9277;BME280;4676;42.678;23.244;2023-03-12T08:21:27;93688.63;;;3.36;nan
9277;BME280;4676;42.678;23.244;2023-03-12T08:23:54;93697.94;;;3.29;nan
9277;BME280;4676;42.678;23.244;2023-03-12T08:26:21;93691.28;;;3.28;nan
9277;BME280;4676;42.678;23.244;2023-03-12T08:28:49;93691.28;;;3.28;nan
9277;BME280;4676;42.678;23.244;2023-03-12T08:31:15;93698.97;;;3.18;nan
9277;BME280;4676;42.678;23.244;2023-03-12T08:33:42;93693.13;;;3.19;nan
9277;BME280;4676;42.678;23.244;2023-03-12T08:36:11;93704.69;;;3.26;nan
9277;BME280;4676;42.678;23.244;2023-03-12T08:38:38;93700.25;;;3.40;nan
9277;BME280;4676;42.678;23.244;2023-03-12T08:41:05;93704.22;;;3.48;nan
9277;BME280;4676;42.678;23.244;2023-03-12T08:43:31;93692.16;;;3.26;nan
9277;BME280;4676;42.678;23.244;2023-03-12T08:46:01;93709.56;;;3.33;nan
9277;BME280;4676;42.678;23.244;2023-03-12T08:48:29;93718.00;;;3.28;nan
9277;BME280;4676;42.678;23.244;2023-03-12T08:50:57;93730.50;;;3.29;nan
9277;BME280;4676;42.678;23.244;2023-03-12T08:53:26;93718.75;;;3.33;nan
9277;BME280;4676;42.678;23.244;2023-03-12T08:55:53;93711.03;;;3.42;nan
9277;BME280;4676;42.678;23.244;2023-03-12T08:58:20;93727.38;;;3.61;nan
9277;BME280;4676;42.678;23.244;2023-03-12T09:00:47;93724.19;;;3.53;nan
9277;BME280;4676;42.678;23.244;2023-03-12T09:03:15;93721.69;;;3.53;nan
9277;BME280;4676;42.678;23.244;2023-03-12T09:05:42;93715.69;;;3.62;nan
9277;BME280;4676;42.678;23.244;2023-03-12T09:08:10;93718.34;;;3.52;nan
9277;BME280;4676;42.678;23.244;2023-03-12T09:10:37;93714.16;;;3.53;nan
9277;BME280;4676;42.678;23.244;2023-03-12T09:13:05;93719.81;;;3.63;nan
9277;BME280;4676;42.678;23.244;2023-03-12T09:15:32;93727.31;;;3.66;nan
9277;BME280;4676;42.678;23.244;2023-03-12T09:17:58;93722.31;;;4.04;nan
9277;BME280;4676;42.678;23.244;2023-03-12T09:20:27;93712.41;;;3.98;nan
9277;BME280;4676;42.678;23.244;2023-03-12T09:22:53;93726.00;;;4.26;nan
9277;BME280;4676;42.678;23.244;2023-03-12T09:25:20;93722.31;;;4.04;nan
9277;BME280;4676;42.678;23.244;2023-03-12T09:27:48;93723.94;;;4.07;nan
9277;BME280;4676;42.678;23.244;2023-03-12T09:30:16;93719.59;;;4.15;nan
9277;BME280;4676;42.678;23.244;2023-03-12T09:32:43;93724.38;;;4.24;nan
9277;BME280;4676;42.678;23.244;2023-03-12T09:35:11;93721.28;;;4.13;nan
9277;BME280;4676;42.678;23.244;2023-03-12T09:37:39;93710.13;;;4.26;nan
9277;BME280;4676;42.678;23.244;2023-03-12T09:40:10;93724.38;;;4.25;nan
9277;BME280;4676;42.678;23.244;2023-03-12T09:42:44;93724.38;;;4.25;nan
9277;BME280;4676;42.678;23.244;2023-03-12T09:45:16;93722.75;;;4.58;nan
9277;BME280;4676;42.678;23.244;2023-03-12T09:47:46;93718.56;;;4.60;nan
9277;BME280;4676;42.678;23.244;2023-03-12T09:50:20;93720.47;;;4.49;nan
9277;BME280;4676;42.678;23.244;2023-03-12T09:52:52;93708.59;;;4.57;nan
9277;BME280;4676;42.678;23.244;2023-03-12T09:55:22;93708.00;;;4.81;nan
9277;BME280;4676;42.678;23.244;2023-03-12T09:57:50;93705.31;;;4.89;nan
9277;BME280;4676;42.678;23.244;2023-03-12T10:00:19;93710.34;;;4.53;nan
9277;BME280;4676;42.678;23.244;2023-03-12T10:06:05;93711.97;;;4.54;nan
9277;BME280;4676;42.678;23.244;2023-03-12T10:08:46;93716.00;;;4.62;nan
9277;BME280;4676;42.678;23.244;2023-03-12T10:11:28;93711.97;;;4.54;nan
9277;BME280;4676;42.678;23.244;2023-03-12T10:14:16;93703.75;;;4.83;nan
9277;BME280;4676;42.678;23.244;2023-03-12T10:16:53;93722.56;;;4.67;nan
9277;BME280;4676;42.678;23.244;2023-03-12T10:19:45;93700.91;;;4.63;nan
9277;BME280;4676;42.678;23.244;2023-03-12T10:22:31;93697.22;;;4.76;nan
9277;BME280;4676;42.678;23.244;2023-03-12T10:25:07;93705.50;;;4.80;nan
9277;BME280;4676;42.678;23.244;2023-03-12T10:27:39;93696.88;;;4.91;nan
9277;BME280;4676;42.678;23.244;2023-03-12T10:30:15;93702.91;;;5.17;nan
9277;BME280;4676;42.678;23.244;2023-03-12T10:32:46;93700.63;;;5.40;nan
9277;BME280;4676;42.678;23.244;2023-03-12T10:35:16;93706.28;;;5.46;nan
9277;BME280;4676;42.678;23.244;2023-03-12T10:37:45;93705.63;;;5.71;nan
9277;BME280;4676;42.678;23.244;2023-03-12T10:40:17;93706.66;;;5.64;nan
9277;BME280;4676;42.678;23.244;2023-03-12T10:42:44;93709.75;;;5.42;nan
9277;BME280;4676;42.678;23.244;2023-03-12T10:45:25;93711.66;;;5.02;nan
9277;BME280;4676;42.678;23.244;2023-03-12T10:47:58;93706.06;;;4.92;nan
9277;BME280;4676;42.678;23.244;2023-03-12T10:50:27;93708.31;;;5.01;nan
9277;BME280;4676;42.678;23.244;2023-03-12T10:53:13;93707.88;;;5.20;nan
9277;BME280;4676;42.678;23.244;2023-03-12T10:55:57;93703.53;;;5.25;nan
9277;BME280;4676;42.678;23.244;2023-03-12T10:58:25;93702.47;;;5.33;nan
9277;BME280;4676;42.678;23.244;2023-03-12T11:00:57;93707.31;;;5.41;nan
9277;BME280;4676;42.678;23.244;2023-03-12T11:03:24;93711.78;;;5.30;nan
9277;BME280;4676;42.678;23.244;2023-03-12T11:05:52;93694.09;;;5.34;nan
9277;BME280;4676;42.678;23.244;2023-03-12T11:08:21;93695.63;;;5.38;nan
9277;BME280;4676;42.678;23.244;2023-03-12T11:10:50;93705.47;;;5.46;nan
9277;BME280;4676;42.678;23.244;2023-03-12T11:13:25;93699.47;;;5.51;nan
9277;BME280;4676;42.678;23.244;2023-03-12T11:15:54;93690.81;;;5.62;nan
9277;BME280;4676;42.678;23.244;2023-03-12T11:18:24;93680.22;;;5.50;nan
9277;BME280;4676;42.678;23.244;2023-03-12T11:20:53;93680.97;;;5.54;nan
9277;BME280;4676;42.678;23.244;2023-03-12T11:23:24;93681.81;;;5.53;nan
9277;BME280;4676;42.678;23.244;2023-03-12T11:25:56;93693.69;;;5.79;nan
9277;BME280;4676;42.678;23.244;2023-03-12T11:28:28;93690.13;;;5.87;nan
9277;BME280;4676;42.678;23.244;2023-03-12T11:30:58;93693.69;;;6.08;nan
9277;BME280;4676;42.678;23.244;2023-03-12T11:33:26;93680.06;;;6.15;nan
9277;BME280;4676;42.678;23.244;2023-03-12T11:36:16;93687.84;;;6.08;nan
9277;BME280;4676;42.678;23.244;2023-03-12T11:38:49;93684.72;;;5.99;nan
9277;BME280;4676;42.678;23.244;2023-03-12T11:41:34;93678.31;;;6.17;nan
9277;BME280;4676;42.678;23.244;2023-03-12T11:44:18;93684.06;;;6.22;nan
9277;BME280;4676;42.678;23.244;2023-03-12T11:46:57;93688.03;;;6.29;nan
9277;BME280;4676;42.678;23.244;2023-03-12T11:49:38;93682.16;;;5.72;nan
9277;BME280;4676;42.678;23.244;2023-03-12T11:52:15;93664.84;;;5.61;nan
9277;BME280;4676;42.678;23.244;2023-03-12T11:55:14;93685.44;;;6.03;nan
9277;BME280;4676;42.678;23.244;2023-03-12T11:57:49;93681.47;;;5.96;nan
9277;BME280;4676;42.678;23.244;2023-03-12T12:00:26;93685.38;;;6.06;nan
9277;BME280;4676;42.678;23.244;2023-03-12T12:03:22;93681.63;;;6.19;nan
9277;BME280;4676;42.678;23.244;2023-03-12T12:05:58;93684.50;;;6.35;nan
9277;BME280;4676;42.678;23.244;2023-03-12T12:08:57;93689.00;;;6.25;nan
9277;BME280;4676;42.678;23.244;2023-03-12T12:11:39;93691.53;;;6.24;nan
9277;BME280;4676;42.678;23.244;2023-03-12T12:14:15;93693.31;;;6.20;nan
9277;BME280;4676;42.678;23.244;2023-03-12T12:16:57;93689.00;;;5.96;nan
9277;BME280;4676;42.678;23.244;2023-03-12T12:19:38;93688.06;;;6.00;nan
9277;BME280;4676;42.678;23.244;2023-03-12T12:22:25;93684.59;;;6.04;nan
9277;BME280;4676;42.678;23.244;2023-03-12T12:25:13;93679.56;;;6.04;nan
9277;BME280;4676;42.678;23.244;2023-03-12T12:27:43;93685.53;;;6.29;nan
9277;BME280;4676;42.678;23.244;2023-03-12T12:30:21;93678.28;;;6.19;nan
9277;BME280;4676;42.678;23.244;2023-03-12T12:33:02;93685.75;;;6.22;nan
9277;BME280;4676;42.678;23.244;2023-03-12T12:35:36;93681.97;;;6.35;nan
9277;BME280;4676;42.678;23.244;2023-03-12T12:38:07;93675.25;;;6.62;nan
9277;BME280;4676;42.678;23.244;2023-03-12T12:40:36;93678.78;;;6.56;nan
9277;BME280;4676;42.678;23.244;2023-03-12T12:43:14;93681.22;;;6.59;nan
9277;BME280;4676;42.678;23.244;2023-03-12T12:45:47;93688.09;;;6.26;nan
9277;BME280;4676;42.678;23.244;2023-03-12T12:48:17;93686.69;;;6.18;nan
9277;BME280;4676;42.678;23.244;2023-03-12T12:50:46;93685.69;;;6.23;nan
9277;BME280;4676;42.678;23.244;2023-03-12T12:53:19;93683.47;;;6.68;nan
9277;BME280;4676;42.678;23.244;2023-03-12T12:55:53;93690.06;;;6.97;nan
9277;BME280;4676;42.678;23.244;2023-03-12T12:58:39;93674.28;;;7.17;nan
9277;BME280;4676;42.678;23.244;2023-03-12T13:01:13;93674.72;;;7.52;nan
9277;BME280;4676;42.678;23.244;2023-03-12T13:03:41;93681.41;;;7.77;nan
9277;BME280;4676;42.678;23.244;2023-03-12T13:06:08;93676.00;;;7.39;nan
9277;BME280;4676;42.678;23.244;2023-03-12T13:08:57;93676.16;;;6.61;nan
9277;BME280;4676;42.678;23.244;2023-03-12T13:11:29;93681.03;;;6.39;nan
9277;BME280;4676;42.678;23.244;2023-03-12T13:14:21;93678.59;;;6.36;nan
9277;BME280;4676;42.678;23.244;2023-03-12T13:17:19;93676.59;;;6.47;nan
9277;BME280;4676;42.678;23.244;2023-03-12T13:19:47;93676.50;;;6.48;nan
9277;BME280;4676;42.678;23.244;2023-03-12T13:22:23;93674.84;;;6.75;nan
9277;BME280;4676;42.678;23.244;2023-03-12T13:24:57;93677.44;;;6.72;nan
9277;BME280;4676;42.678;23.244;2023-03-12T13:27:30;93694.94;;;6.50;nan
9277;BME280;4676;42.678;23.244;2023-03-12T13:33:11;93681.56;;;6.21;nan
9277;BME280;4676;42.678;23.244;2023-03-12T13:35:38;93694.75;;;6.55;nan
9277;BME280;4676;42.678;23.244;2023-03-12T13:38:09;93700.03;;;6.47;nan
9277;BME280;4676;42.678;23.244;2023-03-12T13:41:03;93710.25;;;6.69;nan
9277;BME280;4676;42.678;23.244;2023-03-12T13:43:54;93702.44;;;6.78;nan
9277;BME280;4676;42.678;23.244;2023-03-12T13:49:15;93698.63;;;6.91;nan
9277;BME280;4676;42.678;23.244;2023-03-12T13:51:53;93704.00;;;6.82;nan
9277;BME280;4676;42.678;23.244;2023-03-12T13:54:25;93710.44;;;6.65;nan
9277;BME280;4676;42.678;23.244;2023-03-12T13:56:56;93707.25;;;6.58;nan
9277;BME280;4676;42.678;23.244;2023-03-12T13:59:25;93710.38;;;6.66;nan
9277;BME280;4676;42.678;23.244;2023-03-12T14:01:55;93701.44;;;6.56;nan
9277;BME280;4676;42.678;23.244;2023-03-12T14:04:29;93714.97;;;6.53;nan
9277;BME280;4676;42.678;23.244;2023-03-12T14:07:09;93720.72;;;6.57;nan
9277;BME280;4676;42.678;23.244;2023-03-12T14:09:43;93721.22;;;6.40;nan